createdAt,value
2022-12-08T00:02:17.175Z,4.60
2022-12-08T00:04:59.629Z,4.60
2022-12-08T00:07:50.620Z,4.60
2022-12-08T00:10:47.959Z,4.60
2022-12-08T00:13:07.975Z,4.60
2022-12-08T00:15:36.623Z,4.60
2022-12-08T00:18:07.282Z,4.60
2022-12-08T00:20:35.923Z,4.50
2022-12-08T00:23:05.335Z,4.50
2022-12-08T00:25:36.638Z,4.50
2022-12-08T00:28:05.542Z,4.50
2022-12-08T00:30:34.327Z,4.40
2022-12-08T00:33:03.328Z,4.40
2022-12-08T00:35:35.642Z,4.30
2022-12-08T00:38:06.421Z,4.30
2022-12-08T00:40:34.910Z,4.20
2022-12-08T00:43:03.329Z,4.20
2022-12-08T00:45:31.996Z,4.20
2022-12-08T00:48:00.280Z,4.10
2022-12-08T00:50:28.783Z,4.10
2022-12-08T00:52:58.694Z,4.10
2022-12-08T00:55:27.275Z,4.00
2022-12-08T00:57:56.079Z,4.00
2022-12-08T01:00:24.444Z,3.90
2022-12-08T01:02:58.034Z,3.90
2022-12-08T01:05:26.412Z,3.90
2022-12-08T01:07:55.027Z,3.90
2022-12-08T01:10:24.941Z,4.00
2022-12-08T01:12:53.408Z,4.00
2022-12-08T01:15:22.312Z,4.00
2022-12-08T01:17:50.915Z,4.10
2022-12-08T01:20:19.921Z,4.10
2022-12-08T01:22:48.503Z,4.10
2022-12-08T01:25:16.896Z,4.20
2022-12-08T01:27:46.748Z,4.20
2022-12-08T01:30:16.323Z,4.20
2022-12-08T01:32:44.816Z,4.20
2022-12-08T01:35:13.923Z,4.30
2022-12-08T01:37:42.479Z,4.30
2022-12-08T01:40:11.510Z,4.30
2022-12-08T01:42:40.049Z,4.30
2022-12-08T01:45:16.525Z,4.30
2022-12-08T01:47:49.890Z,4.30
2022-12-08T01:50:22.012Z,4.30
2022-12-08T01:52:57.908Z,4.40
2022-12-08T01:55:32.292Z,4.30
2022-12-08T01:58:04.617Z,4.40
2022-12-08T02:00:34.700Z,4.40
2022-12-08T02:03:06.040Z,4.40
2022-12-08T02:05:36.368Z,4.40
2022-12-08T02:08:08.197Z,4.40
2022-12-08T02:10:38.663Z,4.50
2022-12-08T02:13:10.518Z,4.50
2022-12-08T02:15:46.502Z,4.50
2022-12-08T02:18:33.341Z,4.50
2022-12-08T02:21:07.993Z,4.50
2022-12-08T02:23:45.418Z,4.60
2022-12-08T02:26:42.720Z,4.60
2022-12-08T02:29:33.991Z,4.60
2022-12-08T02:32:24.120Z,4.60
2022-12-08T02:35:01.044Z,4.60
2022-12-08T02:37:34.037Z,4.60
2022-12-08T02:40:10.181Z,4.60
2022-12-08T02:42:43.948Z,4.60
2022-12-08T02:45:18.916Z,4.70
2022-12-08T02:47:47.958Z,4.60
2022-12-08T02:50:18.061Z,4.70
2022-12-08T02:52:48.022Z,4.70
2022-12-08T02:55:26.385Z,4.70
2022-12-08T02:58:31.549Z,4.70
2022-12-08T03:01:13.300Z,4.70
2022-12-08T03:03:49.144Z,4.70
2022-12-08T03:06:27.828Z,4.70
2022-12-08T03:08:59.577Z,4.60
2022-12-08T03:11:34.661Z,4.70
2022-12-08T03:14:06.023Z,4.70
2022-12-08T03:16:38.753Z,4.70
2022-12-08T03:19:18.100Z,4.70
2022-12-08T03:21:52.414Z,4.70
2022-12-08T03:24:24.267Z,4.70
2022-12-08T03:26:58.312Z,4.70
2022-12-08T03:29:26.948Z,4.70
2022-12-08T03:32:00.406Z,4.70
2022-12-08T03:34:30.997Z,4.70
2022-12-08T03:37:02.348Z,4.70
2022-12-08T03:39:30.997Z,4.70
2022-12-08T03:41:59.485Z,4.70
2022-12-08T03:44:28.279Z,4.70
2022-12-08T03:46:56.758Z,4.70
2022-12-08T03:49:25.341Z,4.70
2022-12-08T03:51:53.818Z,4.70
2022-12-08T03:54:24.560Z,4.70
2022-12-08T03:56:53.040Z,4.70
2022-12-08T03:59:21.560Z,4.70
2022-12-08T04:01:51.687Z,4.70
2022-12-08T04:04:20.316Z,4.70
2022-12-08T04:06:49.016Z,4.70
2022-12-08T04:09:17.625Z,4.70
2022-12-08T04:11:47.436Z,4.70
2022-12-08T04:14:15.938Z,4.70
2022-12-08T04:16:44.340Z,4.70
2022-12-08T04:19:13.026Z,4.70
2022-12-08T04:21:41.593Z,4.70
2022-12-08T04:24:10.848Z,4.70
2022-12-08T04:26:39.141Z,4.70
2022-12-08T04:29:09.082Z,4.60
2022-12-08T04:31:37.640Z,4.60
2022-12-08T04:34:06.193Z,4.60
2022-12-08T04:36:34.486Z,4.60
2022-12-08T04:39:03.342Z,4.60
2022-12-08T04:41:31.949Z,4.60
2022-12-08T04:44:02.489Z,4.60
2022-12-08T04:46:32.900Z,4.60
2022-12-08T04:49:02.297Z,4.60
2022-12-08T04:51:30.725Z,4.60
2022-12-08T04:53:59.890Z,4.50
2022-12-08T04:56:28.832Z,4.50
2022-12-08T04:58:57.512Z,4.50
2022-12-08T05:01:26.061Z,4.60
2022-12-08T05:03:56.147Z,4.60
2022-12-08T05:06:24.846Z,4.50
2022-12-08T05:08:56.176Z,4.60
2022-12-08T05:11:25.013Z,4.60
2022-12-08T05:13:56.646Z,4.60
2022-12-08T05:16:25.152Z,4.60
2022-12-08T05:18:56.912Z,4.60
2022-12-08T05:21:27.331Z,4.60
2022-12-08T05:23:55.720Z,4.60
2022-12-08T05:26:24.441Z,4.60
2022-12-08T05:28:52.878Z,4.60
2022-12-08T05:31:21.458Z,4.60
2022-12-08T05:33:51.405Z,4.60
2022-12-08T05:36:20.857Z,4.60
2022-12-08T05:38:50.976Z,4.60
2022-12-08T05:41:22.210Z,4.60
2022-12-08T05:43:51.273Z,4.50
2022-12-08T05:46:20.419Z,4.50
2022-12-08T05:48:50.077Z,4.60
2022-12-08T05:51:22.068Z,4.60
2022-12-08T05:53:54.629Z,4.50
2022-12-08T05:56:24.244Z,4.50
2022-12-08T05:58:53.205Z,4.50
2022-12-08T06:01:24.605Z,4.40
2022-12-08T06:03:54.734Z,4.40
2022-12-08T06:06:24.332Z,4.40
2022-12-08T06:09:03.924Z,4.40
2022-12-08T06:11:33.849Z,4.40
2022-12-08T06:14:03.905Z,4.40
2022-12-08T06:16:33.086Z,4.40
2022-12-08T06:19:02.654Z,4.40
2022-12-08T06:21:31.126Z,4.40
2022-12-08T06:23:59.722Z,4.40
2022-12-08T06:26:30.236Z,4.40
2022-12-08T06:29:00.945Z,4.40
2022-12-08T06:31:30.272Z,4.40
2022-12-08T06:33:59.175Z,4.30
2022-12-08T06:36:29.537Z,4.30
2022-12-08T06:38:58.530Z,4.30
2022-12-08T06:41:27.197Z,4.30
2022-12-08T06:43:59.457Z,4.30
2022-12-08T06:46:28.047Z,4.30
2022-12-08T06:48:59.457Z,4.30
2022-12-08T06:51:28.374Z,4.30
2022-12-08T06:53:56.953Z,4.30
2022-12-08T06:56:28.140Z,4.20
2022-12-08T06:58:56.960Z,4.20
2022-12-08T07:01:27.365Z,4.20
2022-12-08T07:03:56.317Z,4.20
2022-12-08T07:06:26.378Z,4.20
2022-12-08T07:08:55.003Z,4.10
2022-12-08T07:11:23.970Z,4.10
2022-12-08T07:13:52.823Z,4.10
2022-12-08T07:16:21.480Z,4.20
2022-12-08T07:18:52.218Z,4.10
2022-12-08T07:21:21.155Z,4.10
2022-12-08T07:23:55.927Z,4.10
2022-12-08T07:26:27.054Z,4.20
2022-12-08T07:28:55.764Z,4.10
2022-12-08T07:31:26.297Z,4.10
2022-12-08T07:33:57.642Z,4.10
2022-12-08T07:36:26.845Z,4.10
2022-12-08T07:38:55.629Z,4.00
2022-12-08T07:41:26.290Z,4.00
2022-12-08T07:43:55.671Z,4.00
2022-12-08T07:46:26.065Z,4.00
2022-12-08T07:48:57.365Z,4.00
2022-12-08T07:51:26.514Z,3.90
2022-12-08T07:53:55.580Z,3.90
2022-12-08T07:56:24.600Z,3.90
2022-12-08T07:58:53.240Z,3.90
2022-12-08T08:01:25.445Z,3.90
2022-12-08T08:03:56.552Z,3.80
2022-12-08T08:06:25.821Z,3.80
2022-12-08T08:08:54.344Z,3.80
2022-12-08T08:11:23.279Z,3.80
2022-12-08T08:13:52.127Z,3.80
2022-12-08T08:16:21.829Z,3.80
2022-12-08T08:18:52.074Z,3.90
2022-12-08T08:24:12.427Z,3.90
2022-12-08T08:26:41.090Z,3.90
2022-12-08T08:29:09.652Z,3.90
2022-12-08T08:31:38.328Z,3.90
2022-12-08T08:34:07.254Z,3.80
2022-12-08T08:36:37.465Z,3.80
2022-12-08T08:39:06.257Z,3.70
2022-12-08T08:41:35.505Z,3.80
2022-12-08T08:44:04.095Z,3.80
2022-12-08T08:46:33.028Z,3.80
2022-12-08T08:49:01.969Z,3.90
2022-12-08T08:51:32.967Z,3.90
2022-12-08T08:54:03.099Z,3.90
2022-12-08T08:56:31.817Z,3.80
2022-12-08T08:59:02.057Z,3.80
2022-12-08T09:01:30.851Z,3.90
2022-12-08T09:03:59.933Z,3.90
2022-12-08T09:06:29.391Z,3.90
2022-12-08T09:08:58.056Z,3.90
2022-12-08T09:11:28.129Z,3.90
2022-12-08T09:13:57.293Z,3.90
2022-12-08T09:16:26.161Z,4.00
2022-12-08T09:18:54.906Z,4.00
2022-12-08T09:21:25.938Z,4.00
2022-12-08T09:23:56.579Z,4.00
2022-12-08T09:26:26.003Z,4.10
2022-12-08T09:28:57.782Z,4.10
2022-12-08T09:31:26.691Z,4.10
2022-12-08T09:33:55.141Z,4.10
2022-12-08T09:36:23.774Z,4.10
2022-12-08T09:38:53.858Z,4.10
2022-12-08T09:41:37.536Z,4.00
2022-12-08T09:44:30.741Z,4.00
2022-12-08T09:47:00.709Z,4.00
2022-12-08T09:49:38.578Z,4.10
2022-12-08T09:52:13.105Z,4.10
2022-12-08T09:54:41.721Z,4.10
2022-12-08T09:57:17.121Z,4.10
2022-12-08T09:59:52.549Z,4.20
2022-12-08T10:02:24.265Z,4.10
2022-12-08T10:04:55.523Z,4.10
2022-12-08T10:07:36.896Z,4.10
2022-12-08T10:10:12.910Z,4.10
2022-12-08T10:12:47.330Z,4.00
2022-12-08T10:15:39.787Z,4.00
2022-12-08T10:18:16.519Z,4.00
2022-12-08T10:20:47.882Z,4.00
2022-12-08T10:23:24.213Z,4.00
2022-12-08T10:25:59.405Z,4.00
2022-12-08T10:28:28.549Z,4.00
2022-12-08T10:30:58.846Z,4.00
2022-12-08T10:33:29.309Z,4.00
2022-12-08T10:36:00.835Z,4.00
2022-12-08T10:38:34.205Z,4.10
2022-12-08T10:41:07.879Z,4.20
2022-12-08T10:43:39.751Z,4.20
2022-12-08T10:46:17.330Z,4.20
2022-12-08T10:48:53.954Z,4.30
2022-12-08T10:51:29.840Z,4.30
2022-12-08T10:53:59.459Z,4.30
2022-12-08T10:56:36.305Z,4.40
2022-12-08T10:59:15.199Z,4.40
2022-12-08T11:01:49.059Z,4.50
2022-12-08T11:04:20.066Z,4.60
2022-12-08T11:06:49.980Z,4.60
2022-12-08T11:09:38.797Z,4.60
2022-12-08T11:12:14.983Z,4.60
2022-12-08T11:14:50.712Z,4.60
2022-12-08T11:17:29.635Z,4.60
2022-12-08T11:20:00.613Z,4.60
2022-12-08T11:22:33.937Z,4.60
2022-12-08T11:25:10.672Z,4.60
2022-12-08T11:27:41.306Z,4.50
2022-12-08T11:30:17.775Z,4.40
2022-12-08T11:32:49.941Z,4.40
2022-12-08T11:35:27.152Z,4.50
2022-12-08T11:38:13.414Z,4.40
2022-12-08T11:40:48.633Z,4.40
2022-12-08T11:43:22.756Z,4.40
2022-12-08T11:45:59.098Z,4.40
2022-12-08T11:48:35.160Z,4.40
2022-12-08T11:51:08.720Z,4.40
2022-12-08T11:53:45.008Z,4.50
2022-12-08T11:56:21.374Z,4.50
2022-12-08T11:58:53.709Z,4.50
2022-12-08T12:01:24.559Z,4.60
2022-12-08T12:04:03.453Z,4.60
2022-12-08T12:07:10.707Z,4.70
2022-12-08T12:09:50.448Z,4.70
2022-12-08T12:12:36.319Z,4.70
2022-12-08T12:15:44.605Z,4.70
2022-12-08T12:18:23.882Z,4.70
2022-12-08T12:20:58.090Z,4.60
2022-12-08T12:23:37.387Z,4.60
2022-12-08T12:26:09.288Z,4.60
2022-12-08T12:28:44.877Z,4.60
2022-12-08T12:31:18.474Z,4.50
2022-12-08T12:33:48.564Z,4.50
2022-12-08T12:36:19.282Z,4.50
2022-12-08T12:39:06.768Z,4.40
2022-12-08T12:41:44.246Z,4.40
2022-12-08T12:44:41.298Z,4.50
2022-12-08T12:47:15.258Z,4.50
2022-12-08T12:50:08.107Z,4.40
2022-12-08T12:52:46.623Z,4.40
2022-12-08T12:55:27.657Z,4.50
2022-12-08T12:57:58.356Z,4.50
2022-12-08T13:00:28.668Z,4.40
2022-12-08T13:02:59.116Z,4.30
2022-12-08T13:05:30.304Z,4.30
2022-12-08T13:08:04.341Z,4.20
2022-12-08T13:10:34.937Z,4.20
2022-12-08T13:13:08.220Z,4.20
2022-12-08T13:15:39.173Z,4.00
2022-12-08T13:18:08.924Z,3.90
2022-12-08T13:20:47.437Z,3.90
2022-12-08T13:23:42.663Z,3.90
2022-12-08T13:26:17.940Z,3.90
2022-12-08T13:29:19.865Z,3.90
2022-12-08T13:31:51.924Z,3.90
2022-12-08T13:34:31.585Z,4.00
2022-12-08T13:37:10.374Z,4.00
2022-12-08T13:39:47.717Z,4.00
2022-12-08T13:42:22.848Z,4.00
2022-12-08T13:59:30.606Z,4.00
2022-12-08T14:02:02.732Z,4.10
2022-12-08T14:04:47.904Z,4.10
2022-12-08T14:07:20.286Z,4.20
2022-12-08T14:09:48.982Z,4.30
2022-12-08T14:12:22.650Z,4.40
2022-12-08T14:15:03.348Z,4.20
2022-12-08T14:17:42.395Z,4.10
2022-12-08T14:20:23.871Z,4.00
2022-12-08T14:22:53.993Z,4.10
2022-12-08T14:25:24.191Z,4.00
2022-12-08T14:28:01.094Z,4.10
2022-12-08T14:30:32.710Z,4.00
2022-12-08T14:33:02.682Z,4.00
2022-12-08T14:35:33.532Z,3.90
2022-12-08T14:38:04.389Z,3.80
2022-12-08T14:40:36.666Z,3.80
2022-12-08T14:43:16.850Z,3.70
2022-12-08T14:45:50.931Z,3.80
2022-12-08T14:48:27.217Z,3.80
2022-12-08T14:51:03.102Z,3.90
2022-12-08T14:53:39.701Z,4.10
2022-12-08T14:56:16.824Z,4.10
2022-12-08T14:58:47.485Z,4.10
2022-12-08T15:01:19.339Z,4.10
2022-12-08T15:03:51.269Z,4.30
2022-12-08T15:06:22.797Z,4.10
2022-12-08T15:08:59.141Z,4.20
2022-12-08T15:11:36.740Z,4.10
2022-12-08T15:14:30.765Z,4.10
2022-12-08T15:16:59.490Z,4.20
2022-12-08T15:19:31.010Z,4.20
2022-12-08T15:22:09.216Z,4.20
2022-12-08T15:24:37.861Z,4.20
2022-12-08T15:27:06.401Z,4.20
2022-12-08T15:29:36.826Z,4.20
2022-12-08T15:32:11.128Z,4.20
2022-12-08T15:34:39.791Z,4.20
2022-12-08T15:37:20.112Z,4.20
2022-12-08T15:39:48.875Z,4.20
2022-12-08T15:42:17.679Z,4.20
2022-12-08T15:44:49.416Z,4.20
2022-12-08T15:47:19.757Z,4.20
2022-12-08T15:49:50.013Z,4.20
2022-12-08T15:52:20.509Z,4.20
2022-12-08T15:54:49.997Z,4.20
2022-12-08T15:57:44.210Z,4.20
2022-12-08T16:04:09.416Z,4.10
2022-12-08T16:09:16.057Z,4.10
2022-12-08T16:12:07.236Z,4.10
2022-12-08T16:17:28.940Z,4.20
2022-12-08T16:19:58.030Z,4.10
2022-12-08T16:25:19.766Z,4.20
2022-12-08T16:28:01.332Z,4.20
2022-12-08T16:30:34.524Z,4.20
2022-12-08T16:33:04.528Z,4.20
2022-12-08T16:35:33.217Z,4.20
2022-12-08T16:38:01.657Z,4.20
2022-12-08T16:40:30.715Z,4.20
2022-12-08T16:42:58.240Z,4.20
2022-12-08T16:45:28.483Z,4.20
2022-12-08T16:47:59.193Z,4.20
2022-12-08T16:50:32.225Z,4.20
2022-12-08T16:53:02.168Z,4.20
2022-12-08T16:55:30.774Z,4.20
2022-12-08T16:57:59.831Z,4.20
2022-12-08T17:00:30.818Z,4.20
2022-12-08T17:02:59.570Z,4.20
2022-12-08T17:05:30.257Z,4.20
2022-12-08T17:08:00.334Z,4.20
2022-12-08T17:10:34.591Z,4.20
2022-12-08T17:13:04.219Z,4.20
2022-12-08T17:15:33.302Z,4.20
2022-12-08T17:18:02.088Z,4.20
2022-12-08T17:20:34.389Z,4.20
2022-12-08T17:23:03.481Z,4.20
2022-12-08T17:25:32.276Z,4.20
2022-12-08T17:28:02.390Z,4.20
2022-12-08T17:30:31.208Z,4.20
2022-12-08T17:33:00.089Z,4.30
2022-12-08T17:35:29.148Z,4.30
2022-12-08T17:37:59.585Z,4.20
2022-12-08T17:40:29.003Z,4.30
2022-12-08T17:42:57.721Z,4.20
2022-12-08T17:45:26.417Z,4.20
2022-12-08T17:47:55.377Z,4.30
2022-12-08T17:50:24.141Z,4.30
2022-12-08T17:52:53.485Z,4.30
2022-12-08T17:55:28.352Z,4.30
2022-12-08T17:57:57.091Z,4.30
2022-12-08T18:00:25.949Z,4.30
2022-12-08T18:02:54.818Z,4.20
2022-12-08T18:05:24.004Z,4.20
2022-12-08T18:07:53.259Z,4.30
2022-12-08T18:10:23.952Z,4.30
2022-12-08T18:12:52.721Z,4.30
2022-12-08T18:15:22.206Z,4.30
2022-12-08T18:17:50.813Z,4.30
2022-12-08T18:20:20.136Z,4.30
2022-12-08T18:22:49.285Z,4.30
2022-12-08T18:25:18.035Z,4.20
2022-12-08T18:27:48.401Z,4.20
2022-12-08T18:30:19.067Z,4.30
2022-12-08T18:32:51.713Z,4.30
2022-12-08T18:35:23.100Z,4.30
2022-12-08T18:37:52.259Z,4.30
2022-12-08T18:40:21.097Z,4.30
2022-12-08T18:42:52.030Z,4.30
2022-12-08T18:45:22.567Z,4.30
2022-12-08T18:47:52.773Z,4.30
2022-12-08T18:50:21.803Z,4.20
2022-12-08T18:52:51.050Z,4.30
2022-12-08T18:55:20.146Z,4.30
2022-12-08T18:57:48.779Z,4.20
2022-12-08T19:00:21.045Z,4.20
2022-12-08T19:02:49.882Z,4.20
2022-12-08T19:05:19.021Z,4.10
2022-12-08T19:07:48.254Z,4.10
2022-12-08T19:10:16.915Z,4.10
2022-12-08T19:12:46.191Z,4.00
2022-12-08T19:15:15.240Z,4.00
2022-12-08T19:17:46.140Z,3.90
2022-12-08T19:20:16.075Z,3.90
2022-12-08T19:22:45.134Z,3.90
2022-12-08T19:25:14.201Z,3.90
2022-12-08T19:27:44.470Z,3.80
2022-12-08T19:30:15.080Z,3.80
2022-12-08T19:32:45.414Z,3.60
2022-12-08T19:35:14.587Z,3.50
2022-12-08T19:37:43.113Z,3.40
2022-12-08T19:40:31.771Z,3.30
2022-12-08T19:43:17.733Z,3.00
2022-12-08T19:45:46.856Z,2.80
2022-12-08T19:48:17.365Z,2.70
2022-12-08T19:50:46.256Z,2.60
2022-12-08T19:53:17.329Z,2.60
2022-12-08T19:55:46.461Z,2.60
2022-12-08T19:58:16.283Z,2.60
2022-12-08T20:00:45.638Z,2.70
2022-12-08T20:03:18.573Z,2.50
2022-12-08T20:05:52.311Z,2.50
2022-12-08T20:08:21.336Z,2.50
2022-12-08T20:10:50.300Z,2.30
2022-12-08T20:13:36.738Z,2.30
2022-12-08T20:16:05.767Z,2.20
2022-12-08T20:18:38.131Z,2.10
2022-12-08T20:21:09.286Z,2.00
2022-12-08T20:23:43.177Z,2.10
2022-12-08T20:26:15.200Z,2.10
2022-12-08T20:28:44.372Z,2.00
2022-12-08T20:31:20.646Z,1.90
2022-12-08T20:33:51.970Z,1.90
2022-12-08T20:36:24.044Z,1.90
2022-12-08T20:38:54.373Z,1.80
2022-12-08T20:41:24.621Z,1.80
2022-12-08T20:43:54.640Z,1.80
2022-12-08T20:46:24.036Z,1.90
2022-12-08T20:48:54.771Z,2.10
2022-12-08T20:51:30.031Z,2.10
2022-12-08T20:54:01.224Z,2.20
2022-12-08T20:56:32.157Z,2.30
2022-12-08T20:59:01.462Z,2.40
2022-12-08T21:01:31.356Z,2.50
2022-12-08T21:04:03.009Z,2.50
2022-12-08T21:06:32.428Z,2.40
2022-12-08T21:09:01.563Z,2.40
2022-12-08T21:11:30.603Z,2.50
2022-12-08T21:13:59.757Z,2.50
2022-12-08T21:16:28.924Z,2.50
2022-12-08T21:18:58.230Z,2.50
2022-12-08T21:21:29.094Z,2.50
2022-12-08T21:23:58.526Z,2.60
2022-12-08T21:26:27.746Z,2.50
2022-12-08T21:28:59.173Z,2.60
2022-12-08T21:31:32.661Z,2.70
2022-12-08T21:34:03.819Z,2.70
2022-12-08T21:36:35.786Z,2.70
2022-12-08T21:39:11.661Z,2.70
2022-12-08T21:41:57.943Z,2.70
2022-12-08T21:44:26.775Z,2.70
2022-12-08T21:46:55.791Z,2.60
2022-12-08T21:49:25.070Z,2.70
2022-12-08T21:51:55.950Z,2.70
2022-12-08T21:54:25.310Z,2.80
2022-12-08T21:56:54.402Z,2.90
2022-12-08T21:59:23.077Z,2.90
2022-12-08T22:01:52.220Z,3.00
2022-12-08T22:04:22.534Z,2.90
2022-12-08T22:06:51.448Z,2.80
2022-12-08T22:09:22.184Z,2.80
2022-12-08T22:11:51.494Z,2.80
2022-12-08T22:14:20.168Z,2.80
2022-12-08T22:16:48.980Z,2.70
2022-12-08T22:19:18.059Z,2.70
2022-12-08T22:21:47.452Z,2.70
2022-12-08T22:24:18.694Z,2.70
2022-12-08T22:26:54.158Z,2.70
2022-12-08T22:29:23.384Z,2.70
2022-12-08T22:31:52.510Z,2.80
2022-12-08T22:34:21.615Z,2.80
2022-12-08T22:36:50.849Z,2.80
2022-12-08T22:39:19.790Z,2.90
2022-12-08T22:41:50.034Z,2.80
2022-12-08T22:44:18.713Z,2.90
2022-12-08T22:46:47.931Z,2.80
2022-12-08T22:49:16.924Z,2.80
2022-12-08T22:51:46.206Z,2.90
2022-12-08T22:54:15.662Z,2.90
2022-12-08T22:56:45.453Z,3.00
2022-12-08T22:59:16.180Z,3.00
2022-12-08T23:01:45.385Z,2.90
2022-12-08T23:04:18.591Z,2.90
2022-12-08T23:06:50.310Z,3.00
2022-12-08T23:09:22.596Z,3.00
2022-12-08T23:11:52.490Z,3.10
2022-12-08T23:14:22.791Z,3.10
2022-12-08T23:16:52.694Z,3.10
2022-12-08T23:19:21.717Z,3.10
2022-12-08T23:21:50.406Z,3.20
2022-12-08T23:24:19.749Z,3.30
2022-12-08T23:26:49.327Z,3.30
2022-12-08T23:29:18.319Z,3.20
2022-12-08T23:31:48.833Z,3.20
2022-12-08T23:34:17.550Z,3.20
2022-12-08T23:36:46.723Z,3.30
2022-12-08T23:39:15.621Z,3.30
2022-12-08T23:41:44.445Z,3.40
2022-12-08T23:44:13.401Z,3.30
2022-12-08T23:46:42.764Z,3.30
2022-12-08T23:49:13.468Z,3.30
2022-12-08T23:51:43.401Z,3.40
2022-12-08T23:54:12.190Z,3.40
2022-12-08T23:56:40.812Z,3.40
2022-12-08T23:59:09.419Z,3.40
